createdAt,value
2023-05-22T00:00:13.788Z,96.70
2023-05-22T00:01:17.859Z,96.72
2023-05-22T00:02:22.171Z,96.75
2023-05-22T00:03:26.665Z,96.79
2023-05-22T00:04:31.033Z,96.81
2023-05-22T00:05:35.453Z,96.86
2023-05-22T00:06:39.737Z,96.93
2023-05-22T00:07:44.072Z,96.96
2023-05-22T00:08:48.509Z,96.98
2023-05-22T00:09:52.893Z,96.99
2023-05-22T00:10:57.303Z,96.97
2023-05-22T00:12:01.665Z,97.00
2023-05-22T00:13:05.967Z,97.09
2023-05-22T00:14:10.403Z,97.12
2023-05-22T00:15:14.662Z,97.13
2023-05-22T00:16:18.967Z,97.13
2023-05-22T00:17:23.403Z,97.17
2023-05-22T00:18:27.698Z,97.22
2023-05-22T00:19:32.185Z,97.21
2023-05-22T00:20:36.572Z,97.26
2023-05-22T00:21:40.994Z,97.30
2023-05-22T00:22:45.242Z,97.36
2023-05-22T00:23:49.630Z,97.40
2023-05-22T00:24:54.030Z,97.39
2023-05-22T00:25:58.366Z,97.37
2023-05-22T00:27:02.791Z,97.36
2023-05-22T00:28:07.206Z,97.31
2023-05-22T00:29:11.667Z,97.27
2023-05-22T00:30:15.984Z,97.25
2023-05-22T00:31:20.324Z,97.24
2023-05-22T00:32:24.767Z,97.30
2023-05-22T00:33:29.135Z,97.30
2023-05-22T00:34:33.486Z,97.25
2023-05-22T00:35:37.766Z,97.29
2023-05-22T00:36:42.162Z,97.33
2023-05-22T00:37:46.552Z,97.34
2023-05-22T00:40:18.009Z,97.42
2023-05-22T00:41:22.334Z,97.46
2023-05-22T00:42:26.605Z,97.51
2023-05-22T00:43:31.030Z,97.50
2023-05-22T00:44:35.291Z,97.50
2023-05-22T00:45:39.694Z,97.46
2023-05-22T00:46:44.046Z,97.44
2023-05-22T00:47:48.395Z,97.43
2023-05-22T00:48:52.772Z,97.42
2023-05-22T00:49:57.124Z,97.43
2023-05-22T00:51:07.588Z,97.44
2023-05-22T00:52:10.528Z,97.43
2023-05-22T00:53:15.045Z,97.47
2023-05-22T00:54:19.280Z,97.52
2023-05-22T00:55:23.789Z,97.59
2023-05-22T00:56:28.050Z,97.64
2023-05-22T00:57:32.452Z,97.75
2023-05-22T00:58:36.828Z,97.85
2023-05-22T00:59:41.262Z,97.97
2023-05-22T01:00:45.611Z,98.03
2023-05-22T01:01:50.007Z,98.10
2023-05-22T01:02:54.368Z,98.20
2023-05-22T01:03:58.652Z,98.21
2023-05-22T01:05:02.903Z,98.25
2023-05-22T01:06:07.312Z,98.31
2023-05-22T01:07:25.746Z,98.23
2023-05-22T01:08:29.215Z,98.21
2023-05-22T01:09:33.440Z,98.17
2023-05-22T01:10:38.148Z,98.14
2023-05-22T01:11:42.318Z,98.12
2023-05-22T01:12:46.583Z,98.17
2023-05-22T01:13:51.032Z,98.14
2023-05-22T01:14:55.403Z,98.14
2023-05-22T01:17:27.052Z,98.24
2023-05-22T01:18:31.201Z,98.30
2023-05-22T01:19:35.831Z,98.36
2023-05-22T01:20:40.235Z,98.44
2023-05-22T01:21:44.291Z,98.51
2023-05-22T01:22:48.628Z,98.62
2023-05-22T01:23:53.151Z,98.67
2023-05-22T01:24:57.504Z,98.73
2023-05-22T01:26:01.948Z,98.81
2023-05-22T01:27:06.251Z,98.86
2023-05-22T01:28:10.673Z,98.89
2023-05-22T01:29:14.930Z,98.92
2023-05-22T01:30:35.381Z,99.03
2023-05-22T01:31:38.795Z,99.13
2023-05-22T01:32:43.154Z,99.20
2023-05-22T01:33:47.541Z,99.25
2023-05-22T01:34:51.779Z,99.33
2023-05-22T01:35:56.090Z,99.43
2023-05-22T01:37:00.439Z,99.45
2023-05-22T01:38:04.873Z,99.58
2023-05-22T01:39:09.172Z,99.70
2023-05-22T01:40:13.468Z,99.80
2023-05-22T01:41:17.815Z,99.89
2023-05-22T01:42:22.229Z,99.98
2023-05-22T01:43:26.603Z,100.00
2023-05-22T01:44:30.965Z,100.00
2023-05-22T01:45:35.462Z,100.00
2023-05-22T01:46:39.662Z,100.00
2023-05-22T01:47:44.093Z,100.00
2023-05-22T01:48:48.436Z,100.00
2023-05-22T01:49:52.704Z,100.00
2023-05-22T01:50:57.130Z,100.00
2023-05-22T01:52:01.474Z,100.00
2023-05-22T01:53:05.875Z,100.00
2023-05-22T01:54:10.198Z,100.00
2023-05-22T01:55:14.612Z,100.00
2023-05-22T01:56:18.843Z,100.00
2023-05-22T01:57:23.243Z,100.00
2023-05-22T01:58:27.586Z,100.00
2023-05-22T01:59:31.939Z,100.00
2023-05-22T02:00:36.442Z,100.00
2023-05-22T02:01:40.773Z,100.00
2023-05-22T02:02:45.082Z,100.00
2023-05-22T02:03:49.315Z,100.00
2023-05-22T02:04:53.638Z,100.00
2023-05-22T02:05:58.039Z,100.00
2023-05-22T02:07:02.309Z,100.00
2023-05-22T02:08:06.746Z,100.00
2023-05-22T02:09:14.032Z,100.00
2023-05-22T02:10:17.632Z,100.00
2023-05-22T02:11:21.895Z,100.00
2023-05-22T02:12:26.278Z,100.00
2023-05-22T02:13:30.668Z,100.00
2023-05-22T02:14:34.968Z,100.00
2023-05-22T02:15:39.290Z,100.00
2023-05-22T02:16:43.616Z,100.00
2023-05-22T02:17:48.108Z,100.00
2023-05-22T02:18:52.329Z,100.00
2023-05-22T02:19:56.563Z,100.00
2023-05-22T02:21:00.933Z,100.00
2023-05-22T02:22:05.209Z,100.00
2023-05-22T02:23:09.627Z,100.00
2023-05-22T02:24:14.004Z,100.00
2023-05-22T02:25:18.325Z,100.00
2023-05-22T02:26:22.679Z,100.00
2023-05-22T02:27:27.043Z,100.00
2023-05-22T02:28:31.366Z,100.00
2023-05-22T02:29:35.701Z,100.00
2023-05-22T02:30:40.342Z,100.00
2023-05-22T02:31:44.441Z,100.00
2023-05-22T02:32:48.770Z,100.00
2023-05-22T02:33:53.079Z,100.00
2023-05-22T02:34:57.386Z,100.00
2023-05-22T02:36:01.828Z,100.00
2023-05-22T02:37:06.140Z,100.00
2023-05-22T02:38:10.501Z,100.00
2023-05-22T02:39:14.892Z,100.00
2023-05-22T02:40:19.242Z,100.00
2023-05-22T02:41:23.640Z,100.00
2023-05-22T02:42:28.310Z,100.00
2023-05-22T02:43:32.275Z,100.00
2023-05-22T02:44:36.604Z,100.00
2023-05-22T02:45:40.917Z,100.00
2023-05-22T02:46:45.299Z,100.00
2023-05-22T02:47:49.617Z,100.00
2023-05-22T02:48:53.984Z,100.00
2023-05-22T02:49:58.252Z,100.00
2023-05-22T02:51:02.614Z,100.00
2023-05-22T02:52:06.953Z,100.00
2023-05-22T02:53:11.214Z,100.00
2023-05-22T02:54:15.525Z,100.00
2023-05-22T02:55:19.929Z,100.00
2023-05-22T02:56:24.219Z,100.00
2023-05-22T02:57:28.603Z,100.00
2023-05-22T02:58:32.895Z,100.00
2023-05-22T02:59:37.161Z,100.00
2023-05-22T03:00:41.707Z,100.00
2023-05-22T03:01:45.867Z,100.00
2023-05-22T03:02:50.228Z,100.00
2023-05-22T03:03:54.870Z,100.00
2023-05-22T03:04:58.993Z,100.00
2023-05-22T03:06:17.267Z,100.00
2023-05-22T03:07:20.561Z,100.00
2023-05-22T03:08:24.782Z,100.00
2023-05-22T03:09:29.137Z,100.00
2023-05-22T03:10:33.474Z,100.00
2023-05-22T03:11:37.892Z,100.00
2023-05-22T03:12:42.254Z,100.00
2023-05-22T03:13:46.496Z,100.00
2023-05-22T03:14:50.703Z,100.00
2023-05-22T03:15:55.259Z,100.00
2023-05-22T03:16:59.440Z,100.00
2023-05-22T03:18:03.833Z,100.00
2023-05-22T03:19:08.192Z,100.00
2023-05-22T03:20:12.460Z,100.00
2023-05-22T03:21:16.726Z,100.00
2023-05-22T03:22:21.044Z,100.00
2023-05-22T03:23:25.423Z,100.00
2023-05-22T03:24:29.712Z,100.00
2023-05-22T03:25:34.007Z,100.00
2023-05-22T03:26:38.345Z,100.00
2023-05-22T03:27:42.713Z,100.00
2023-05-22T03:28:46.912Z,100.00
2023-05-22T03:29:51.344Z,100.00
2023-05-22T03:30:55.687Z,100.00
2023-05-22T03:31:59.991Z,100.00
2023-05-22T03:33:04.374Z,100.00
2023-05-22T03:34:08.768Z,100.00
2023-05-22T03:35:13.068Z,100.00
2023-05-22T03:36:17.355Z,100.00
2023-05-22T03:37:21.722Z,100.00
2023-05-22T03:38:26.109Z,100.00
2023-05-22T03:39:30.454Z,100.00
2023-05-22T03:40:37.907Z,100.00
2023-05-22T03:41:41.149Z,100.00
2023-05-22T03:42:45.552Z,100.00
2023-05-22T03:43:49.837Z,100.00
2023-05-22T03:44:54.303Z,100.00
2023-05-22T03:45:58.588Z,100.00
2023-05-22T03:47:02.887Z,100.00
2023-05-22T03:48:07.283Z,100.00
2023-05-22T03:49:11.586Z,100.00
2023-05-22T03:50:15.932Z,100.00
2023-05-22T03:51:20.571Z,100.00
2023-05-22T03:52:24.648Z,100.00
2023-05-22T03:53:28.986Z,100.00
2023-05-22T03:54:33.271Z,100.00
2023-05-22T03:55:37.599Z,100.00
2023-05-22T03:56:41.982Z,100.00
2023-05-22T03:57:46.197Z,100.00
2023-05-22T03:58:50.646Z,100.00
2023-05-22T03:59:54.980Z,100.00
2023-05-22T04:01:00.285Z,100.00
2023-05-22T04:02:04.411Z,100.00
2023-05-22T04:03:08.790Z,100.00
2023-05-22T04:04:13.042Z,100.00
2023-05-22T04:05:17.342Z,100.00
2023-05-22T04:06:21.748Z,100.00
2023-05-22T04:07:26.049Z,100.00
2023-05-22T04:08:30.420Z,100.00
2023-05-22T04:09:34.696Z,100.00
2023-05-22T04:10:39.271Z,100.00
2023-05-22T04:11:44.331Z,100.00
2023-05-22T04:12:48.242Z,100.00
2023-05-22T04:13:52.642Z,100.00
2023-05-22T04:14:56.930Z,100.00
2023-05-22T04:16:01.350Z,100.00
2023-05-22T04:17:05.647Z,100.00
2023-05-22T04:18:09.910Z,100.00
2023-05-22T04:19:14.246Z,100.00
2023-05-22T04:20:18.617Z,100.00
2023-05-22T04:21:22.896Z,100.00
2023-05-22T04:22:27.321Z,100.00
2023-05-22T04:23:31.571Z,100.00
2023-05-22T04:24:35.934Z,100.00
2023-05-22T04:25:40.302Z,100.00
2023-05-22T04:26:44.610Z,100.00
2023-05-22T04:27:48.941Z,100.00
2023-05-22T04:28:53.236Z,100.00
2023-05-22T04:29:58.432Z,100.00
2023-05-22T04:31:02.405Z,100.00
2023-05-22T04:32:06.682Z,100.00
2023-05-22T04:33:11.154Z,100.00
2023-05-22T04:34:15.408Z,100.00
2023-05-22T04:35:19.772Z,100.00
2023-05-22T04:36:24.084Z,100.00
2023-05-22T04:37:28.409Z,100.00
2023-05-22T04:38:32.873Z,100.00
2023-05-22T04:39:37.216Z,100.00
2023-05-22T04:40:41.664Z,100.00
2023-05-22T04:41:45.812Z,100.00
2023-05-22T04:42:50.255Z,100.00
2023-05-22T04:43:54.531Z,100.00
2023-05-22T04:44:58.787Z,100.00
2023-05-22T04:46:03.215Z,100.00
2023-05-22T04:47:08.102Z,100.00
2023-05-22T04:48:11.932Z,100.00
2023-05-22T04:49:16.239Z,100.00
2023-05-22T04:50:20.690Z,100.00
2023-05-22T04:51:25.126Z,100.00
2023-05-22T04:52:29.364Z,100.00
2023-05-22T04:53:33.732Z,100.00
2023-05-22T04:54:52.192Z,100.00
2023-05-22T04:55:55.351Z,100.00
2023-05-22T04:56:59.608Z,100.00
2023-05-22T04:58:03.976Z,100.00
2023-05-22T04:59:08.237Z,100.00
2023-05-22T05:00:12.620Z,100.00
2023-05-22T05:01:17.088Z,100.00
2023-05-22T05:02:21.497Z,100.00
2023-05-22T05:03:25.780Z,100.00
2023-05-22T05:04:30.089Z,100.00
2023-05-22T05:05:34.484Z,100.00
2023-05-22T05:06:38.933Z,100.00
2023-05-22T05:07:43.165Z,100.00
2023-05-22T05:08:47.568Z,100.00
2023-05-22T05:09:51.919Z,100.00
2023-05-22T05:10:56.220Z,100.00
2023-05-22T05:12:00.589Z,100.00
2023-05-22T05:13:04.939Z,100.00
2023-05-22T05:14:09.375Z,100.00
2023-05-22T05:15:13.773Z,100.00
2023-05-22T05:16:21.172Z,100.00
2023-05-22T05:17:24.616Z,100.00
2023-05-22T05:18:28.870Z,100.00
2023-05-22T05:19:36.143Z,100.00
2023-05-22T05:20:37.856Z,100.00
2023-05-22T05:21:42.139Z,100.00
2023-05-22T05:22:46.422Z,100.00
2023-05-22T05:23:50.836Z,100.00
2023-05-22T05:24:55.201Z,100.00
2023-05-22T05:25:59.656Z,100.00
2023-05-22T05:27:04.035Z,100.00
2023-05-22T05:28:08.360Z,100.00
2023-05-22T05:29:12.783Z,99.00
2023-05-22T05:30:19.537Z,98.25
2023-05-22T05:31:21.658Z,97.94
2023-05-22T05:32:40.176Z,97.85
2023-05-22T05:33:43.521Z,97.62
2023-05-22T05:34:48.009Z,97.52
2023-05-22T05:35:52.183Z,96.72
2023-05-22T05:36:56.520Z,95.97
2023-05-22T05:38:00.967Z,95.83
2023-05-22T05:39:05.290Z,96.00
2023-05-22T05:40:09.733Z,95.64
2023-05-22T05:41:14.028Z,94.63
2023-05-22T05:42:18.502Z,94.61
2023-05-22T05:43:22.829Z,94.13
2023-05-22T05:44:27.207Z,94.10
2023-05-22T05:45:31.677Z,94.11
2023-05-22T05:46:36.129Z,93.96
2023-05-22T05:47:40.561Z,93.94
2023-05-22T05:48:44.874Z,93.81
2023-05-22T05:49:49.334Z,93.83
2023-05-22T05:50:53.672Z,93.39
2023-05-22T05:51:58.109Z,93.20
2023-05-22T05:53:02.476Z,93.00
2023-05-22T05:54:06.803Z,92.77
2023-05-22T05:55:11.252Z,92.43
2023-05-22T05:56:15.686Z,91.69
2023-05-22T05:57:20.007Z,91.35
2023-05-22T05:58:24.511Z,90.91
2023-05-22T05:59:28.913Z,90.59
2023-05-22T06:00:33.303Z,90.31
2023-05-22T06:01:37.706Z,90.42
2023-05-22T06:02:42.274Z,90.14
2023-05-22T06:03:46.774Z,89.66
2023-05-22T06:04:50.907Z,88.94
2023-05-22T06:05:55.466Z,88.70
2023-05-22T06:06:59.716Z,87.30
2023-05-22T06:08:04.124Z,85.86
2023-05-22T06:09:08.524Z,84.48
2023-05-22T06:11:40.252Z,85.57
2023-05-22T06:12:44.570Z,85.87
2023-05-22T06:13:48.883Z,84.70
2023-05-22T06:14:53.312Z,84.64
2023-05-22T06:15:59.590Z,84.69
2023-05-22T06:17:02.012Z,83.83
2023-05-22T06:18:06.441Z,83.48
2023-05-22T06:19:10.818Z,83.39
2023-05-22T06:20:15.167Z,83.40
2023-05-22T06:21:19.626Z,83.02
2023-05-22T06:22:24.048Z,81.75
2023-05-22T06:23:28.423Z,81.17
2023-05-22T06:24:32.765Z,81.58
2023-05-22T06:25:37.237Z,82.24
2023-05-22T06:26:41.667Z,81.92
2023-05-22T06:27:46.132Z,82.28
2023-05-22T06:28:50.438Z,82.41
2023-05-22T06:29:55.675Z,82.34
2023-05-22T06:30:59.220Z,81.22
2023-05-22T06:32:03.663Z,80.39
2023-05-22T06:33:08.092Z,81.20
2023-05-22T06:34:12.565Z,81.50
2023-05-22T06:35:16.835Z,81.92
2023-05-22T06:36:35.278Z,82.29
2023-05-22T06:37:38.940Z,82.53
2023-05-22T06:38:43.184Z,82.63
2023-05-22T06:39:47.550Z,82.32
2023-05-22T06:40:51.991Z,82.69
2023-05-22T06:41:56.476Z,82.75
2023-05-22T06:43:00.882Z,82.38
2023-05-22T06:44:05.480Z,81.59
2023-05-22T06:45:09.865Z,80.82
2023-05-22T06:46:14.320Z,79.38
2023-05-22T06:47:18.710Z,78.59
2023-05-22T06:48:23.136Z,79.02
2023-05-22T06:49:27.646Z,78.56
2023-05-22T06:50:32.120Z,77.14
2023-05-22T06:51:50.522Z,76.67
2023-05-22T06:53:03.095Z,75.27
2023-05-22T06:54:05.842Z,72.99
2023-05-22T06:55:10.214Z,73.19
2023-05-22T06:56:14.587Z,73.52
2023-05-22T06:57:19.085Z,73.84
2023-05-22T06:58:37.513Z,74.68
2023-05-22T06:59:40.911Z,74.86
2023-05-22T07:00:45.262Z,74.37
2023-05-22T07:01:52.630Z,73.96
2023-05-22T07:02:56.179Z,73.31
2023-05-22T07:04:00.606Z,73.43
2023-05-22T07:05:04.965Z,72.81
2023-05-22T07:06:09.652Z,71.47
2023-05-22T07:07:13.843Z,72.11
2023-05-22T07:08:18.350Z,72.86
2023-05-22T07:09:22.672Z,72.84
2023-05-22T07:10:27.236Z,72.13
2023-05-22T07:11:31.541Z,72.78
2023-05-22T07:12:35.956Z,73.44
2023-05-22T07:13:40.357Z,74.09
2023-05-22T07:14:44.838Z,74.50
2023-05-22T07:15:49.260Z,73.89
2023-05-22T07:18:21.101Z,72.28
2023-05-22T07:19:25.397Z,72.74
2023-05-22T07:20:29.833Z,73.72
2023-05-22T07:21:34.271Z,72.22
2023-05-22T07:22:38.648Z,72.70
2023-05-22T07:23:43.120Z,73.64
2023-05-22T07:25:01.476Z,73.85
2023-05-22T07:26:10.713Z,73.73
2023-05-22T07:27:13.716Z,74.13
2023-05-22T07:28:18.072Z,72.44
2023-05-22T07:29:23.328Z,71.14
2023-05-22T07:30:26.977Z,70.44
2023-05-22T07:31:31.395Z,70.63
2023-05-22T07:32:35.764Z,70.72
2023-05-22T07:33:40.155Z,71.32
2023-05-22T07:34:44.575Z,70.45
2023-05-22T07:35:49.076Z,70.82
2023-05-22T07:36:53.536Z,71.52
2023-05-22T07:37:57.931Z,71.25
2023-05-22T07:39:16.546Z,70.94
2023-05-22T07:40:20.048Z,70.92
2023-05-22T07:41:24.448Z,71.67
2023-05-22T07:42:28.883Z,71.68
2023-05-22T07:43:33.372Z,71.46
2023-05-22T07:44:37.844Z,71.84
2023-05-22T07:45:42.274Z,71.71
2023-05-22T07:46:46.709Z,70.58
2023-05-22T07:47:52.239Z,69.58
2023-05-22T07:49:01.553Z,70.18
2023-05-22T07:50:04.720Z,70.28
2023-05-22T07:51:09.175Z,70.20
2023-05-22T07:52:13.733Z,70.47
2023-05-22T07:53:32.086Z,70.00
2023-05-22T07:54:49.522Z,69.34
2023-05-22T07:55:53.027Z,70.25
2023-05-22T07:56:57.377Z,70.83
2023-05-22T07:58:01.797Z,70.61
2023-05-22T07:59:06.213Z,70.08
2023-05-22T08:00:10.654Z,68.98
2023-05-22T08:01:15.114Z,68.32
2023-05-22T08:02:19.538Z,69.33
2023-05-22T08:03:24.540Z,68.96
2023-05-22T08:04:28.384Z,68.82
2023-05-22T08:05:32.805Z,69.11
2023-05-22T08:06:51.220Z,68.63
2023-05-22T08:08:08.778Z,67.44
2023-05-22T08:09:11.936Z,68.24
2023-05-22T08:10:16.491Z,67.81
2023-05-22T08:11:20.787Z,67.19
2023-05-22T08:12:25.172Z,66.44
2023-05-22T08:13:29.680Z,66.11
2023-05-22T08:14:48.167Z,65.05
2023-05-22T08:15:51.723Z,65.55
2023-05-22T08:16:56.056Z,66.53
2023-05-22T08:18:00.439Z,64.84
2023-05-22T08:19:04.880Z,64.74
2023-05-22T08:20:23.426Z,64.86
2023-05-22T08:21:26.622Z,65.65
2023-05-22T08:22:31.040Z,66.89
2023-05-22T08:23:35.441Z,66.24
2023-05-22T08:24:39.892Z,67.08
2023-05-22T08:25:44.404Z,66.84
2023-05-22T08:26:48.726Z,67.20
2023-05-22T08:27:53.195Z,67.38
2023-05-22T08:28:57.571Z,65.69
2023-05-22T08:30:02.144Z,65.77
2023-05-22T08:31:06.589Z,65.61
2023-05-22T08:32:10.999Z,64.93
2023-05-22T08:33:15.546Z,66.13
2023-05-22T08:34:19.944Z,66.04
2023-05-22T08:35:24.379Z,66.14
2023-05-22T08:36:42.871Z,65.63
2023-05-22T08:37:46.315Z,65.50
2023-05-22T08:38:50.633Z,65.55
2023-05-22T08:39:55.150Z,64.63
2023-05-22T08:40:59.547Z,64.03
2023-05-22T08:42:03.997Z,63.74
2023-05-22T08:43:08.563Z,64.34
2023-05-22T08:44:26.932Z,65.20
2023-05-22T08:45:44.534Z,64.56
2023-05-22T08:46:47.703Z,64.75
2023-05-22T08:47:52.060Z,64.80
2023-05-22T08:48:56.439Z,63.66
2023-05-22T08:50:14.888Z,64.47
2023-05-22T08:51:24.230Z,65.03
2023-05-22T08:52:41.360Z,64.50
2023-05-22T08:54:00.732Z,63.13
2023-05-22T08:55:04.254Z,61.55
2023-05-22T08:56:11.900Z,61.51
2023-05-22T08:57:29.200Z,60.84
2023-05-22T08:58:32.782Z,60.48
2023-05-22T08:59:37.137Z,61.08
2023-05-22T09:00:41.722Z,60.56
2023-05-22T09:01:46.197Z,61.18
2023-05-22T09:02:50.595Z,61.16
2023-05-22T09:03:54.998Z,62.22
2023-05-22T09:04:59.395Z,62.21
2023-05-22T09:06:03.813Z,62.27
2023-05-22T09:07:08.377Z,62.46
2023-05-22T09:08:20.330Z,62.86
2023-05-22T09:09:17.344Z,62.91
2023-05-22T09:10:21.729Z,61.02
2023-05-22T09:11:26.314Z,59.64
2023-05-22T09:12:30.660Z,59.82
2023-05-22T09:13:35.105Z,59.36
2023-05-22T09:14:39.580Z,59.57
2023-05-22T09:15:44.013Z,60.01
2023-05-22T09:16:48.460Z,60.30
2023-05-22T09:17:52.855Z,59.73
2023-05-22T09:18:57.326Z,59.76
2023-05-22T09:20:01.793Z,60.25
2023-05-22T09:21:11.494Z,60.41
2023-05-22T09:22:10.739Z,60.77
2023-05-22T09:23:15.289Z,60.88
2023-05-22T09:24:19.663Z,59.03
2023-05-22T09:25:24.093Z,59.57
2023-05-22T09:26:28.589Z,60.63
2023-05-22T09:27:33.162Z,61.18
2023-05-22T09:28:37.531Z,60.03
2023-05-22T09:29:45.043Z,59.99
2023-05-22T09:30:48.747Z,60.12
2023-05-22T09:31:53.212Z,60.00
2023-05-22T09:32:57.667Z,59.68
2023-05-22T09:34:16.099Z,61.08
2023-05-22T09:35:33.487Z,60.59
2023-05-22T09:36:51.208Z,60.63
2023-05-22T09:37:54.554Z,60.07
2023-05-22T09:38:58.856Z,58.59
2023-05-22T09:40:17.233Z,58.55
2023-05-22T09:41:20.440Z,57.86
2023-05-22T09:42:24.947Z,57.92
2023-05-22T09:43:29.442Z,57.74
2023-05-22T09:46:04.398Z,57.99
2023-05-22T09:47:24.098Z,58.03
2023-05-22T09:48:41.517Z,58.94
2023-05-22T09:49:44.743Z,57.47
2023-05-22T09:52:19.471Z,56.98
2023-05-22T09:53:23.013Z,55.40
2023-05-22T09:54:27.438Z,56.29
2023-05-22T09:55:37.780Z,56.40
2023-05-22T09:56:40.888Z,56.62
2023-05-22T09:57:51.313Z,55.78
2023-05-22T09:58:54.519Z,55.78
2023-05-22T09:59:58.832Z,55.41
2023-05-22T10:01:06.334Z,56.26
2023-05-22T10:02:09.994Z,54.84
2023-05-22T10:03:14.392Z,55.01
2023-05-22T10:04:18.994Z,55.20
2023-05-22T10:05:26.289Z,56.17
2023-05-22T10:06:35.819Z,57.17
2023-05-22T10:07:38.957Z,57.62
2023-05-22T10:08:43.365Z,55.95
2023-05-22T10:09:53.782Z,56.56
2023-05-22T10:10:56.974Z,55.42
2023-05-22T10:12:07.429Z,54.71
2023-05-22T10:13:24.662Z,55.35
2023-05-22T10:14:29.652Z,55.03
2023-05-22T10:15:38.571Z,54.84
2023-05-22T10:16:55.846Z,54.69
2023-05-22T10:17:59.341Z,55.61
2023-05-22T10:19:04.608Z,54.20
2023-05-22T10:21:36.300Z,53.04
2023-05-22T10:22:54.673Z,53.66
2023-05-22T10:23:58.299Z,54.80
2023-05-22T10:25:02.643Z,54.65
2023-05-22T10:26:07.072Z,53.50
2023-05-22T10:27:25.480Z,53.32
2023-05-22T10:28:28.913Z,53.01
2023-05-22T10:29:33.476Z,52.99
2023-05-22T10:30:45.025Z,53.88
2023-05-22T10:32:02.128Z,54.87
2023-05-22T10:33:05.708Z,53.34
2023-05-22T10:35:43.376Z,53.94
2023-05-22T10:36:48.292Z,54.87
2023-05-22T10:37:50.765Z,54.24
2023-05-22T10:38:55.172Z,53.06
2023-05-22T10:39:59.656Z,52.74
2023-05-22T10:41:04.061Z,53.55
2023-05-22T10:42:08.643Z,53.44
2023-05-22T10:43:16.053Z,52.18
2023-05-22T10:44:19.689Z,52.79
2023-05-22T10:45:30.418Z,53.04
2023-05-22T10:46:36.369Z,52.21
2023-05-22T10:47:45.955Z,52.71
2023-05-22T10:48:49.008Z,54.24
2023-05-22T10:49:53.420Z,53.89
2023-05-22T10:50:59.751Z,52.24
2023-05-22T10:52:02.285Z,53.10
2023-05-22T10:53:06.868Z,51.63
2023-05-22T10:54:11.314Z,52.64
2023-05-22T10:55:15.829Z,52.16
2023-05-22T10:56:34.313Z,53.14
2023-05-22T10:57:37.740Z,53.53
2023-05-22T10:58:45.322Z,52.18
2023-05-22T11:00:03.075Z,52.72
2023-05-22T11:01:06.771Z,52.73
2023-05-22T11:02:11.613Z,53.31
2023-05-22T11:04:42.937Z,53.55
2023-05-22T11:05:47.333Z,53.82
2023-05-22T11:07:05.882Z,53.50
2023-05-22T11:08:09.281Z,52.66
2023-05-22T11:09:16.759Z,52.64
2023-05-22T11:10:34.357Z,52.46
2023-05-22T11:11:37.875Z,52.48
2023-05-22T11:12:42.318Z,52.04
2023-05-22T11:13:46.767Z,51.49
2023-05-22T11:14:51.177Z,51.76
2023-05-22T11:15:55.611Z,52.62
2023-05-22T11:17:00.217Z,52.74
2023-05-22T11:18:18.577Z,53.64
2023-05-22T11:19:24.889Z,51.56
2023-05-22T11:20:34.434Z,51.27
2023-05-22T11:21:37.503Z,50.46
2023-05-22T11:22:47.906Z,50.45
2023-05-22T11:23:51.059Z,50.54
2023-05-22T11:25:09.451Z,50.88
2023-05-22T11:26:13.020Z,51.50
2023-05-22T11:27:20.439Z,49.98
2023-05-22T11:28:24.045Z,49.35
2023-05-22T11:29:34.457Z,50.16
2023-05-22T11:30:51.732Z,50.13
2023-05-22T11:31:54.927Z,51.06
2023-05-22T11:33:05.607Z,50.84
2023-05-22T11:34:08.517Z,50.64
2023-05-22T11:35:12.984Z,48.66
2023-05-22T11:36:23.502Z,48.48
2023-05-22T11:37:26.719Z,48.16
2023-05-22T11:38:31.146Z,48.02
2023-05-22T11:39:35.595Z,48.77
2023-05-22T11:40:43.055Z,48.52
2023-05-22T11:41:46.616Z,48.56
2023-05-22T11:42:51.128Z,49.44
2023-05-22T11:43:55.535Z,48.82
2023-05-22T11:45:00.108Z,48.48
2023-05-22T11:46:07.511Z,48.70
2023-05-22T11:47:25.154Z,50.01
2023-05-22T11:48:28.614Z,49.35
2023-05-22T11:49:38.990Z,48.92
2023-05-22T11:50:56.169Z,48.37
2023-05-22T11:51:59.511Z,48.15
2023-05-22T11:53:04.098Z,47.32
2023-05-22T11:54:08.477Z,48.29
2023-05-22T11:55:13.031Z,48.98
2023-05-22T11:56:23.470Z,48.06
2023-05-22T11:57:40.657Z,48.79
2023-05-22T11:58:44.024Z,48.57
2023-05-22T11:59:48.520Z,47.69
2023-05-22T12:00:53.076Z,47.13
2023-05-22T12:01:57.395Z,46.39
2023-05-22T12:03:02.067Z,46.59
2023-05-22T12:04:12.571Z,46.42
2023-05-22T12:05:15.597Z,46.94
2023-05-22T12:06:20.113Z,46.89
2023-05-22T12:07:24.495Z,46.12
2023-05-22T12:08:29.016Z,46.66
2023-05-22T12:09:33.444Z,47.12
2023-05-22T12:10:38.188Z,47.63
2023-05-22T12:11:56.493Z,47.44
2023-05-22T12:12:59.895Z,47.62
2023-05-22T12:14:18.367Z,47.42
2023-05-22T12:15:21.970Z,46.17
2023-05-22T12:16:29.396Z,46.04
2023-05-22T12:17:47.098Z,46.27
2023-05-22T12:19:04.786Z,46.52
2023-05-22T12:20:08.344Z,46.86
2023-05-22T12:22:40.219Z,45.74
2023-05-22T12:23:44.628Z,45.27
2023-05-22T12:24:49.060Z,44.91
2023-05-22T12:25:53.542Z,44.91
2023-05-22T12:26:58.047Z,44.81
2023-05-22T12:28:02.615Z,45.13
2023-05-22T12:29:21.102Z,45.34
2023-05-22T12:30:24.614Z,45.22
2023-05-22T12:32:56.518Z,45.56
2023-05-22T12:34:15.010Z,46.13
2023-05-22T12:35:18.718Z,46.96
2023-05-22T12:36:22.994Z,47.28
2023-05-22T12:37:33.701Z,46.36
2023-05-22T12:38:50.553Z,46.17
2023-05-22T12:39:54.231Z,46.02
2023-05-22T12:40:58.697Z,46.47
2023-05-22T12:42:03.181Z,46.52
2023-05-22T12:43:07.631Z,45.46
2023-05-22T12:44:12.083Z,45.15
2023-05-22T12:45:16.579Z,44.90
2023-05-22T12:46:35.311Z,45.22
2023-05-22T12:47:41.626Z,45.55
2023-05-22T12:48:48.149Z,45.81
2023-05-22T12:50:05.846Z,45.87
2023-05-22T12:51:23.556Z,46.61
2023-05-22T12:52:33.029Z,46.33
2023-05-22T12:53:50.148Z,46.71
2023-05-22T12:54:53.792Z,46.41
2023-05-22T12:56:04.154Z,46.43
2023-05-22T12:57:07.268Z,47.23
2023-05-22T12:58:25.713Z,46.88
2023-05-22T12:59:29.192Z,47.43
2023-05-22T13:02:01.089Z,46.90
2023-05-22T13:03:05.441Z,47.05
2023-05-22T13:04:09.976Z,46.12
2023-05-22T13:05:14.493Z,46.47
2023-05-22T13:06:21.868Z,46.40
2023-05-22T13:07:25.658Z,45.53
2023-05-22T13:08:30.039Z,46.09
2023-05-22T13:09:37.604Z,46.76
2023-05-22T13:10:41.249Z,47.55
2023-05-22T13:11:45.736Z,47.64
2023-05-22T13:12:50.002Z,47.62
2023-05-22T13:13:54.504Z,46.72
2023-05-22T13:15:13.061Z,46.35
2023-05-22T13:16:16.461Z,46.41
2023-05-22T13:17:20.762Z,46.60
2023-05-22T13:18:25.230Z,46.94
2023-05-22T13:19:29.758Z,47.29
2023-05-22T13:20:34.211Z,47.32
2023-05-22T13:21:38.739Z,46.24
2023-05-22T13:22:43.354Z,46.31
2023-05-22T13:23:53.753Z,46.49
2023-05-22T13:24:56.958Z,46.16
2023-05-22T13:26:15.433Z,47.01
2023-05-22T13:27:18.898Z,47.92
2023-05-22T13:28:23.312Z,48.40
2023-05-22T13:29:27.823Z,47.56
2023-05-22T13:30:32.230Z,47.60
2023-05-22T13:31:36.786Z,47.89
2023-05-22T13:32:41.313Z,48.59
2023-05-22T13:33:45.750Z,48.07
2023-05-22T13:34:50.202Z,47.53
2023-05-22T13:37:25.309Z,47.66
2023-05-22T13:38:43.114Z,47.91
2023-05-22T13:39:46.515Z,47.93
2023-05-22T13:40:50.967Z,47.89
2023-05-22T13:41:55.455Z,48.14
2023-05-22T13:42:59.845Z,48.52
2023-05-22T13:44:04.266Z,49.26
2023-05-22T13:45:08.692Z,48.73
2023-05-22T13:46:27.248Z,48.97
2023-05-22T13:47:30.636Z,48.21
2023-05-22T13:48:35.163Z,48.37
2023-05-22T13:49:42.532Z,49.00
2023-05-22T13:50:46.268Z,49.58
2023-05-22T13:51:56.729Z,49.82
2023-05-22T13:52:59.938Z,49.06
2023-05-22T13:54:04.429Z,47.85
2023-05-22T13:55:08.697Z,47.84
2023-05-22T13:56:13.203Z,48.27
2023-05-22T13:57:17.670Z,48.03
2023-05-22T13:58:28.023Z,47.80
2023-05-22T13:59:31.225Z,47.95
2023-05-22T14:00:35.558Z,48.25
2023-05-22T14:01:46.120Z,47.97
2023-05-22T14:03:03.491Z,48.29
2023-05-22T14:04:06.759Z,48.81
2023-05-22T14:05:17.129Z,49.00
2023-05-22T14:06:20.193Z,49.41
2023-05-22T14:07:30.658Z,49.66
2023-05-22T14:08:47.818Z,49.57
2023-05-22T14:09:51.477Z,49.83
2023-05-22T14:10:55.651Z,49.79
2023-05-22T14:12:00.020Z,49.90
2023-05-22T14:13:04.418Z,50.42
2023-05-22T14:14:08.902Z,50.43
2023-05-22T14:15:13.358Z,50.92
2023-05-22T14:16:17.828Z,50.62
2023-05-22T14:17:22.218Z,50.50